createdAt,value
2018-04-11T00:02:06.392Z,100293.65
2018-04-11T00:04:36.230Z,100290.02
2018-04-11T00:07:06.294Z,100279.69
2018-04-11T00:09:35.791Z,100272.41
2018-04-11T00:12:05.702Z,100270.70
2018-04-11T00:14:35.609Z,100266.56
2018-04-11T00:17:05.503Z,100268.85
2018-04-11T00:19:35.672Z,100263.86
2018-04-11T00:22:05.228Z,100269.20
2018-04-11T00:24:35.510Z,100272.79
2018-04-11T00:27:05.333Z,100275.12
2018-04-11T00:29:34.895Z,100282.31
2018-04-11T00:32:05.042Z,100280.95
2018-04-11T00:34:35.077Z,100289.39
2018-04-11T00:37:04.591Z,100293.02
2018-04-11T00:39:34.656Z,100303.94
2018-04-11T00:42:04.503Z,100303.51
2018-04-11T00:44:34.092Z,100302.63
2018-04-11T00:47:03.671Z,100308.04
2018-04-11T00:49:32.851Z,100305.21
2018-04-11T00:52:02.732Z,100305.56
2018-04-11T00:54:31.896Z,100321.81
2018-04-11T00:57:01.397Z,100336.66
2018-04-11T00:59:30.492Z,100344.83
2018-04-11T01:01:59.601Z,100359.68
2018-04-11T01:04:29.427Z,100375.00
2018-04-11T01:06:59.182Z,100374.00
2018-04-11T01:09:29.091Z,100371.29
2018-04-11T01:11:58.921Z,100368.31
2018-04-11T01:14:28.486Z,100364.25
2018-04-11T01:16:58.862Z,100358.67
2018-04-11T01:19:28.897Z,100356.90
2018-04-11T01:21:58.665Z,100353.88
2018-04-11T01:24:28.187Z,100346.99
2018-04-11T01:26:57.934Z,100343.44
2018-04-11T01:29:28.851Z,100347.84
2018-04-11T01:31:58.621Z,100342.93
2018-04-11T01:34:28.605Z,100339.80
2018-04-11T01:36:58.197Z,100343.78
2018-04-11T01:39:27.862Z,100348.27
2018-04-11T01:41:58.659Z,100345.28
2018-04-11T01:44:28.357Z,100348.34
2018-04-11T01:46:58.108Z,100342.42
2018-04-11T01:49:27.904Z,100357.24
2018-04-11T01:51:57.530Z,100361.46
2018-04-11T01:54:27.730Z,100370.02
2018-04-11T01:56:57.545Z,100366.37
2018-04-11T01:59:27.903Z,100364.95
2018-04-11T02:01:57.611Z,100372.60
2018-04-11T02:04:26.905Z,100369.39
2018-04-11T02:06:56.840Z,100377.52
2018-04-11T02:09:26.656Z,100378.44
2018-04-11T02:11:56.584Z,100382.08
2018-04-11T02:14:26.629Z,100390.05
2018-04-11T02:16:56.829Z,100387.92
2018-04-11T02:19:26.384Z,100380.27
2018-04-11T02:21:55.864Z,100378.44
2018-04-11T02:24:25.802Z,100381.58
2018-04-11T02:26:55.475Z,100374.80
2018-04-11T02:29:25.206Z,100374.00
2018-04-11T02:31:55.684Z,100378.48
2018-04-11T02:34:25.355Z,100380.64
2018-04-11T02:36:55.229Z,100384.21
2018-04-11T02:39:24.839Z,100393.69
2018-04-11T02:41:55.937Z,100397.83
2018-04-11T02:44:25.477Z,100406.88
2018-04-11T02:46:55.110Z,100409.44
2018-04-11T02:49:25.748Z,100414.43
2018-04-11T02:51:55.363Z,100417.52
2018-04-11T02:54:25.120Z,100416.79
2018-04-11T02:56:54.611Z,100420.85
2018-04-11T02:59:24.097Z,100419.55
2018-04-11T03:01:53.806Z,100419.55
2018-04-11T03:04:23.768Z,100422.52
2018-04-11T03:06:53.486Z,100428.52
2018-04-11T03:09:31.792Z,100423.56
2018-04-11T03:12:03.872Z,100435.72
2018-04-11T03:14:39.332Z,100436.49
2018-04-11T03:17:17.596Z,100438.16
2018-04-11T03:19:56.840Z,100438.93
2018-04-11T03:22:26.543Z,100433.59
2018-04-11T03:24:56.418Z,100425.66
2018-04-11T03:27:26.134Z,100428.14
2018-04-11T03:29:55.592Z,100432.31
2018-04-11T03:32:25.209Z,100432.51
2018-04-11T03:34:55.465Z,100435.33
2018-04-11T03:37:25.374Z,100444.53
2018-04-11T03:39:55.153Z,100447.73
2018-04-11T03:42:24.933Z,100447.92
2018-04-11T03:44:54.526Z,100450.06
2018-04-11T03:47:24.509Z,100460.41
2018-04-11T03:49:54.695Z,100462.27
2018-04-11T03:52:24.183Z,100451.75
2018-04-11T03:54:53.823Z,100462.45
2018-04-11T03:57:24.705Z,100454.22
2018-04-11T03:59:54.588Z,100449.80
2018-04-11T04:02:24.534Z,100440.71
2018-04-11T04:04:54.347Z,100447.48
2018-04-11T04:07:23.767Z,100440.35
2018-04-11T04:09:53.816Z,100441.59
2018-04-11T04:12:24.392Z,100446.84
2018-04-11T04:15:05.927Z,100441.55
2018-04-11T04:17:46.913Z,100434.00
2018-04-11T04:20:23.863Z,100442.83
2018-04-11T04:22:53.734Z,100438.41
2018-04-11T04:25:24.106Z,100451.03
2018-04-11T04:27:54.040Z,100449.06
2018-04-11T04:30:25.097Z,100451.41
2018-04-11T04:32:54.768Z,100446.50
2018-04-11T04:35:26.193Z,100451.30
2018-04-11T04:37:56.204Z,100445.08
2018-04-11T04:40:26.033Z,100451.05
2018-04-11T04:42:56.018Z,100455.81
2018-04-11T04:45:25.771Z,100462.14
2018-04-11T04:47:55.339Z,100465.53
2018-04-11T04:50:25.474Z,100461.98
2018-04-11T04:52:55.556Z,100463.19
2018-04-11T04:55:25.816Z,100460.63
2018-04-11T04:57:55.961Z,100465.89
2018-04-11T05:00:25.742Z,100463.38
2018-04-11T05:02:55.581Z,100459.64
2018-04-11T05:05:25.358Z,100465.05
2018-04-11T05:07:55.246Z,100474.59
2018-04-11T05:10:25.077Z,100484.17
2018-04-11T05:12:54.648Z,100482.70
2018-04-11T05:15:23.952Z,100480.19
2018-04-11T05:17:53.563Z,100487.73
2018-04-11T05:20:23.108Z,100484.34
2018-04-11T05:22:52.574Z,100485.16
2018-04-11T05:25:22.691Z,100479.74
2018-04-11T05:27:52.225Z,100483.41
2018-04-11T05:30:22.136Z,100484.08
2018-04-11T05:32:51.720Z,100486.33
2018-04-11T05:35:20.820Z,100491.30
2018-04-11T05:37:50.766Z,100498.53
2018-04-11T05:40:20.176Z,100497.68
2018-04-11T05:42:50.166Z,100508.19
2018-04-11T05:45:20.216Z,100505.05
2018-04-11T05:47:49.877Z,100511.89
2018-04-11T05:50:19.994Z,100518.16
2018-04-11T05:52:49.970Z,100514.16
2018-04-11T05:55:19.777Z,100515.52
2018-04-11T05:57:49.809Z,100511.81
2018-04-11T06:00:19.376Z,100506.48
2018-04-11T06:02:49.132Z,100514.52
2018-04-11T06:05:18.814Z,100510.64
2018-04-11T06:07:48.495Z,100508.41
2018-04-11T06:10:19.071Z,100507.59
2018-04-11T06:12:48.826Z,100514.00
2018-04-11T06:15:18.858Z,100519.76
2018-04-11T06:17:48.717Z,100516.70
2018-04-11T06:20:18.839Z,100518.52
2018-04-11T06:22:48.663Z,100522.03
2018-04-11T06:25:18.369Z,100521.69
2018-04-11T06:27:48.285Z,100518.23
2018-04-11T06:30:17.712Z,100523.08
2018-04-11T06:32:47.735Z,100526.16
2018-04-11T06:35:17.664Z,100525.84
2018-04-11T06:37:47.740Z,100536.09
2018-04-11T06:40:17.655Z,100539.61
2018-04-11T06:42:47.482Z,100537.91
2018-04-11T06:45:17.184Z,100542.19
2018-04-11T06:47:46.946Z,100535.06
2018-04-11T06:50:17.478Z,100537.41
2018-04-11T06:52:47.408Z,100544.34
2018-04-11T06:55:16.987Z,100545.47
2018-04-11T06:57:46.968Z,100545.35
2018-04-11T07:00:15.924Z,100552.78
2018-04-11T07:02:45.069Z,100553.71
2018-04-11T07:05:14.194Z,100543.98
2018-04-11T07:07:43.812Z,100545.66
2018-04-11T07:10:12.946Z,100542.16
2018-04-11T07:12:42.045Z,100549.95
2018-04-11T07:15:11.175Z,100552.16
2018-04-11T07:17:40.659Z,100547.67
2018-04-11T07:20:09.552Z,100549.54
2018-04-11T07:22:38.688Z,100546.52
2018-04-11T07:25:08.130Z,100547.38
2018-04-11T07:27:37.325Z,100549.84
2018-04-11T07:30:06.613Z,100555.47
2018-04-11T07:32:35.756Z,100565.97
2018-04-11T07:35:04.889Z,100568.82
2018-04-11T07:37:34.249Z,100573.80
2018-04-11T07:40:03.524Z,100563.52
2018-04-11T07:42:32.876Z,100562.73
2018-04-11T07:45:02.122Z,100557.33
2018-04-11T07:47:31.292Z,100571.32
2018-04-11T07:50:00.412Z,100573.06
2018-04-11T07:52:29.513Z,100570.95
2018-04-11T07:54:58.949Z,100568.73
2018-04-11T07:57:28.083Z,100563.92
2018-04-11T07:59:57.195Z,100561.03
2018-04-11T08:02:26.139Z,100573.03
2018-04-11T08:04:55.053Z,100570.14
2018-04-11T08:07:24.569Z,100569.27
2018-04-11T08:09:53.696Z,100574.00
2018-04-11T08:12:23.131Z,100579.15
2018-04-11T08:14:52.044Z,100572.13
2018-04-11T08:17:21.776Z,100575.22
2018-04-11T08:19:50.608Z,100574.97
2018-04-11T08:22:19.586Z,100574.35
2018-04-11T08:24:48.802Z,100575.20
2018-04-11T08:27:18.554Z,100575.45
2018-04-11T08:29:47.664Z,100579.06
2018-04-11T08:32:16.851Z,100578.70
2018-04-11T08:34:45.991Z,100580.66
2018-04-11T08:37:15.112Z,100577.34
2018-04-11T08:39:46.918Z,100573.20
2018-04-11T08:42:17.671Z,100571.38
2018-04-11T08:44:47.950Z,100576.84
2018-04-11T08:47:17.123Z,100573.46
2018-04-11T08:49:46.128Z,100573.48
2018-04-11T08:52:15.453Z,100571.31
2018-04-11T08:54:44.588Z,100572.00
2018-04-11T08:57:13.722Z,100574.85
2018-04-11T08:59:46.351Z,100577.06
2018-04-11T09:02:15.494Z,100581.47
2018-04-11T09:04:44.661Z,100584.75
2018-04-11T09:07:13.782Z,100587.73
2018-04-11T09:09:42.904Z,100587.27
2018-04-11T09:12:12.142Z,100585.92
2018-04-11T09:14:41.301Z,100581.97
2018-04-11T09:17:10.431Z,100586.66
2018-04-11T09:19:39.912Z,100580.78
2018-04-11T09:22:09.302Z,100583.99
2018-04-11T09:24:38.450Z,100586.84
2018-04-11T09:27:07.592Z,100584.80
2018-04-11T09:29:36.812Z,100581.78
2018-04-11T09:32:06.064Z,100577.23
2018-04-11T09:34:35.060Z,100575.61
2018-04-11T09:37:04.232Z,100578.47
2018-04-11T09:39:33.379Z,100575.38
2018-04-11T09:42:02.833Z,100579.58
2018-04-11T09:44:32.657Z,100580.27
2018-04-11T09:47:01.782Z,100576.80
2018-04-11T09:49:31.747Z,100583.14
2018-04-11T09:52:01.616Z,100585.09
2018-04-11T09:54:30.754Z,100586.59
2018-04-11T09:56:59.901Z,100590.41
2018-04-11T09:59:29.109Z,100580.86
2018-04-11T10:01:59.080Z,100576.80
2018-04-11T10:04:28.447Z,100575.19
2018-04-11T10:06:57.713Z,100571.12
2018-04-11T10:09:27.024Z,100572.44
2018-04-11T10:11:56.214Z,100573.36
2018-04-11T10:14:25.346Z,100578.89
2018-04-11T10:16:54.746Z,100584.38
2018-04-11T10:19:24.771Z,100584.56
2018-04-11T10:21:54.003Z,100593.54
2018-04-11T10:24:22.944Z,100586.77
2018-04-11T10:26:53.432Z,100592.54
2018-04-11T10:29:23.074Z,100598.83
2018-04-11T10:31:52.202Z,100597.97
2018-04-11T10:34:22.124Z,100592.80
2018-04-11T10:36:51.706Z,100601.05
2018-04-11T10:39:20.729Z,100594.38
2018-04-11T10:41:50.047Z,100592.92
2018-04-11T10:44:19.496Z,100595.36
2018-04-11T10:46:48.632Z,100599.68
2018-04-11T10:49:17.805Z,100600.61
2018-04-11T10:51:47.277Z,100605.15
2018-04-11T10:54:16.391Z,100607.92
2018-04-11T10:56:46.290Z,100602.31
2018-04-11T10:59:16.473Z,100601.70
2018-04-11T11:01:45.385Z,100602.38
2018-04-11T11:04:14.280Z,100604.23
2018-04-11T11:06:44.040Z,100604.03
2018-04-11T11:09:13.191Z,100606.22
2018-04-11T11:11:42.352Z,100608.00
2018-04-11T11:14:11.687Z,100602.38
2018-04-11T11:16:40.790Z,100604.48
2018-04-11T11:19:09.912Z,100605.83
2018-04-11T11:21:39.788Z,100597.78
2018-04-11T11:24:08.908Z,100601.25
2018-04-11T11:26:37.813Z,100589.84
2018-04-11T11:29:06.963Z,100596.30
2018-04-11T11:31:36.097Z,100593.80
2018-04-11T11:34:05.044Z,100599.63
2018-04-11T11:36:33.959Z,100597.28
2018-04-11T11:39:02.841Z,100597.66
2018-04-11T11:41:31.772Z,100598.39
2018-04-11T11:44:01.041Z,100596.73
2018-04-11T11:46:30.260Z,100595.48
2018-04-11T11:48:59.380Z,100601.41
2018-04-11T11:51:28.639Z,100597.95
2018-04-11T11:53:57.800Z,100591.45
2018-04-11T11:56:27.493Z,100594.27
2018-04-11T11:58:56.641Z,100590.42
2018-04-11T12:01:25.813Z,100593.59
2018-04-11T12:03:55.745Z,100584.36
2018-04-11T12:06:25.402Z,100576.50
2018-04-11T12:08:54.724Z,100573.30
2018-04-11T12:11:24.861Z,100575.65
2018-04-11T12:13:54.037Z,100578.78
2018-04-11T12:16:23.171Z,100579.70
2018-04-11T12:18:52.314Z,100583.99
2018-04-11T12:21:21.479Z,100575.31
2018-04-11T12:23:52.633Z,100572.76
2018-04-11T12:26:22.872Z,100576.93
2018-04-11T12:28:52.084Z,100573.17
2018-04-11T12:31:21.623Z,100573.00
2018-04-11T12:33:51.767Z,100571.70
2018-04-11T12:36:20.978Z,100576.93
2018-04-11T12:38:50.141Z,100573.59
2018-04-11T12:41:19.264Z,100575.69
2018-04-11T12:43:48.363Z,100575.87
2018-04-11T12:46:17.533Z,100570.44
2018-04-11T12:48:46.687Z,100568.06
2018-04-11T12:51:15.589Z,100564.14
2018-04-11T12:53:44.533Z,100571.07
2018-04-11T12:56:13.683Z,100568.94
2018-04-11T12:58:43.584Z,100572.48
2018-04-11T13:01:12.867Z,100564.80
2018-04-11T13:03:42.855Z,100567.44
2018-04-11T13:06:12.787Z,100568.02
2018-04-11T13:08:42.026Z,100564.56
2018-04-11T13:11:11.186Z,100556.38
2018-04-11T13:13:40.653Z,100551.22
2018-04-11T13:16:09.835Z,100548.13
2018-04-11T13:18:38.723Z,100542.80
2018-04-11T13:21:07.729Z,100540.64
2018-04-11T13:23:36.868Z,100542.66
2018-04-11T13:26:05.981Z,100541.78
2018-04-11T13:28:35.412Z,100534.97
2018-04-11T13:31:04.525Z,100528.48
2018-04-11T13:33:33.436Z,100531.64
2018-04-11T13:36:02.936Z,100527.04
2018-04-11T13:38:32.087Z,100520.44
2018-04-11T13:41:01.384Z,100526.28
2018-04-11T13:43:30.333Z,100514.48
2018-04-11T13:45:59.637Z,100518.11
2018-04-11T13:48:28.769Z,100515.78
2018-04-11T13:50:57.926Z,100519.84
2018-04-11T13:53:26.811Z,100514.97
2018-04-11T13:55:55.979Z,100510.91
2018-04-11T13:58:25.403Z,100504.41
2018-04-11T14:00:54.499Z,100500.34
2018-04-11T14:03:23.629Z,100501.59
2018-04-11T14:05:52.760Z,100494.41
2018-04-11T14:08:22.397Z,100495.34
2018-04-11T14:10:51.504Z,100490.50
2018-04-11T14:13:20.685Z,100491.35
2018-04-11T14:15:49.814Z,100490.11
2018-04-11T14:18:18.936Z,100494.01
2018-04-11T14:20:48.076Z,100485.80
2018-04-11T14:23:17.236Z,100482.23
2018-04-11T14:25:46.139Z,100483.11
2018-04-11T14:28:15.559Z,100477.94
2018-04-11T14:30:44.696Z,100477.74
2018-04-11T14:33:13.608Z,100483.47
2018-04-11T14:35:42.612Z,100476.11
2018-04-11T14:38:11.551Z,100477.89
2018-04-11T14:40:41.389Z,100478.24
2018-04-11T14:43:10.531Z,100476.81
2018-04-11T14:45:39.424Z,100480.26
2018-04-11T14:48:09.045Z,100474.39
2018-04-11T14:50:38.223Z,100474.70
2018-04-11T14:53:07.378Z,100473.00
2018-04-11T14:55:36.758Z,100473.00
2018-04-11T14:58:05.926Z,100471.64
2018-04-11T15:00:35.062Z,100472.77
2018-04-11T15:03:04.312Z,100467.43
2018-04-11T15:05:34.288Z,100471.80
2018-04-11T15:08:05.043Z,100467.67
2018-04-11T15:10:34.572Z,100471.00
2018-04-11T15:13:03.710Z,100474.31
2018-04-11T15:15:32.862Z,100472.61
2018-04-11T15:18:01.795Z,100466.70
2018-04-11T15:20:30.972Z,100458.77
2018-04-11T15:23:00.249Z,100464.45
2018-04-11T15:25:29.403Z,100457.95
2018-04-11T15:27:58.717Z,100459.08
2018-04-11T15:30:27.842Z,100447.89
2018-04-11T15:32:56.997Z,100453.70
2018-04-11T15:35:26.165Z,100448.05
2018-04-11T15:37:55.323Z,100452.77
2018-04-11T15:40:24.497Z,100454.32
2018-04-11T15:42:53.446Z,100450.17
2018-04-11T15:45:23.596Z,100455.02
2018-04-11T15:47:53.111Z,100454.52
2018-04-11T15:50:23.518Z,100451.85
2018-04-11T15:52:52.674Z,100445.34
2018-04-11T15:55:22.033Z,100447.55
2018-04-11T15:57:52.978Z,100438.84
2018-04-11T16:00:23.595Z,100442.22
2018-04-11T16:02:52.723Z,100442.41
2018-04-11T16:05:22.439Z,100435.14
2018-04-11T16:07:52.172Z,100434.75
2018-04-11T16:10:22.569Z,100432.08
2018-04-11T16:12:51.723Z,100424.81
2018-04-11T16:15:20.881Z,100425.62
2018-04-11T16:17:50.139Z,100425.50
2018-04-11T16:20:19.263Z,100425.84
2018-04-11T16:22:48.400Z,100422.02
2018-04-11T16:25:17.555Z,100418.80
2018-04-11T16:27:46.458Z,100416.64
2018-04-11T16:30:15.655Z,100418.34
2018-04-11T16:32:44.513Z,100424.88
2018-04-11T16:35:13.409Z,100421.98
2018-04-11T16:37:42.556Z,100419.11
2018-04-11T16:40:11.993Z,100420.06
2018-04-11T16:42:41.101Z,100423.02
2018-04-11T16:45:10.246Z,100419.70
2018-04-11T16:47:39.381Z,100417.77
2018-04-11T16:50:08.504Z,100417.22
2018-04-11T16:52:37.748Z,100421.64
2018-04-11T16:55:07.056Z,100427.16
2018-04-11T16:57:36.205Z,100423.96
2018-04-11T17:00:05.841Z,100421.06
2018-04-11T17:02:34.944Z,100409.66
2018-04-11T17:05:04.050Z,100405.59
2018-04-11T17:07:33.912Z,100415.99
2018-04-11T17:10:03.032Z,100410.47
2018-04-11T17:12:32.153Z,100408.88
2018-04-11T17:15:01.048Z,100409.11
2018-04-11T17:17:29.922Z,100406.16
2018-04-11T17:19:58.795Z,100409.80
2018-04-11T17:22:38.864Z,100407.40
2018-04-11T17:25:19.024Z,100408.09
2018-04-11T17:27:59.213Z,100408.55
2018-04-11T17:30:39.726Z,100405.46
2018-04-11T17:33:08.860Z,100404.06
2018-04-11T17:35:37.956Z,100405.65
2018-04-11T17:38:07.064Z,100403.09
2018-04-11T17:40:36.204Z,100400.23
2018-04-11T17:43:05.323Z,100403.90
2018-04-11T17:45:34.206Z,100402.86
2018-04-11T17:48:03.376Z,100402.55
2018-04-11T17:50:32.270Z,100405.37
2018-04-11T17:53:01.456Z,100406.02
2018-04-11T17:55:30.716Z,100407.48
2018-04-11T17:57:59.828Z,100404.43
2018-04-11T18:00:28.925Z,100405.36
2018-04-11T18:02:58.303Z,100395.92
2018-04-11T18:05:27.418Z,100393.80
2018-04-11T18:07:56.517Z,100401.17
2018-04-11T18:10:25.644Z,100402.19
2018-04-11T18:12:54.744Z,100408.67
2018-04-11T18:15:23.872Z,100412.96
2018-04-11T18:17:53.051Z,100411.14
2018-04-11T18:20:22.403Z,100412.96
2018-04-11T18:22:51.503Z,100413.84
2018-04-11T18:25:20.624Z,100407.70
2018-04-11T18:27:49.738Z,100403.88
2018-04-11T18:30:18.854Z,100406.34
2018-04-11T18:32:47.975Z,100403.37
2018-04-11T18:35:17.177Z,100402.02
2018-04-11T18:37:46.276Z,100405.66
2018-04-11T18:40:15.399Z,100409.21
2018-04-11T18:42:44.511Z,100415.55
2018-04-11T18:45:13.636Z,100418.80
2018-04-11T18:47:42.790Z,100424.89
2018-04-11T18:50:11.908Z,100416.03
2018-04-11T18:52:41.006Z,100419.23
2018-04-11T18:55:10.276Z,100416.23
2018-04-11T18:57:39.391Z,100408.55
2018-04-11T19:00:08.420Z,100417.94
2018-04-11T19:02:37.541Z,100413.45
2018-04-11T19:05:06.673Z,100421.03
2018-04-11T19:07:35.775Z,100421.64
2018-04-11T19:10:04.899Z,100428.45
2018-04-11T19:12:34.010Z,100426.63
2018-04-11T19:15:03.153Z,100433.31
2018-04-11T19:17:32.276Z,100431.16
2018-04-11T19:20:01.387Z,100434.43
2018-04-11T19:22:30.487Z,100436.89
2018-04-11T19:24:59.608Z,100431.34
2018-04-11T19:27:28.717Z,100429.45
2018-04-11T19:29:57.599Z,100426.50
2018-04-11T19:32:26.900Z,100428.16
2018-04-11T19:34:56.067Z,100434.97
2018-04-11T19:37:25.072Z,100431.73
2018-04-11T19:39:54.605Z,100435.28
2018-04-11T19:42:23.709Z,100437.48
2018-04-11T19:44:52.591Z,100431.11
2018-04-11T19:47:21.482Z,100432.46
2018-04-11T19:49:50.441Z,100439.03
2018-04-11T19:52:19.559Z,100441.12
2018-04-11T19:54:48.484Z,100439.45
2018-04-11T19:57:17.600Z,100432.77
2018-04-11T19:59:46.473Z,100429.87
2018-04-11T20:02:15.596Z,100426.63
2018-04-11T20:04:44.707Z,100424.52
2018-04-11T20:07:13.609Z,100418.88
2018-04-11T20:09:42.740Z,100419.07
2018-04-11T20:12:11.636Z,100419.16
2018-04-11T20:14:40.532Z,100416.27
2018-04-11T20:17:09.423Z,100415.58
2018-04-11T20:19:38.528Z,100420.06
2018-04-11T20:22:07.627Z,100425.24
2018-04-11T20:24:36.516Z,100425.33
2018-04-11T20:27:05.612Z,100421.16
2018-04-11T20:29:34.727Z,100421.89
2018-04-11T20:32:04.498Z,100415.55
2018-04-11T20:34:33.816Z,100413.39
2018-04-11T20:37:03.448Z,100422.21
2018-04-11T20:39:32.837Z,100423.09
2018-04-11T20:42:02.095Z,100424.26
2018-04-11T20:44:31.204Z,100422.75
2018-04-11T20:47:00.875Z,100409.11
2018-04-11T20:49:30.620Z,100411.23
2018-04-11T20:52:00.532Z,100412.82
2018-04-11T20:54:30.298Z,100402.30
2018-04-11T20:57:00.205Z,100403.66
2018-04-11T20:59:29.918Z,100404.81
2018-04-11T21:01:59.942Z,100404.70
2018-04-11T21:04:29.504Z,100403.12
2018-04-11T21:06:59.125Z,100402.65
2018-04-11T21:09:28.990Z,100402.45
2018-04-11T21:11:59.103Z,100404.09
2018-04-11T21:14:28.695Z,100403.11
2018-04-11T21:16:58.674Z,100392.28
2018-04-11T21:19:28.381Z,100400.69
2018-04-11T21:21:58.140Z,100401.14
2018-04-11T21:24:27.698Z,100404.08
2018-04-11T21:26:57.544Z,100402.58
2018-04-11T21:29:28.264Z,100394.95
2018-04-11T21:31:58.411Z,100399.24
2018-04-11T21:34:28.624Z,100397.81
2018-04-11T21:36:58.255Z,100398.62
2018-04-11T21:39:28.117Z,100402.73
2018-04-11T21:41:58.673Z,100408.95
2018-04-11T21:44:28.360Z,100404.84
2018-04-11T21:46:57.846Z,100413.78
2018-04-11T21:49:27.814Z,100408.72
2018-04-11T21:51:57.377Z,100408.67
2018-04-11T21:54:27.408Z,100399.55
2018-04-11T21:56:56.865Z,100393.63
2018-04-11T21:59:26.800Z,100393.13
2018-04-11T22:01:56.567Z,100391.73
2018-04-11T22:04:26.658Z,100393.50
2018-04-11T22:06:56.352Z,100395.70
2018-04-11T22:09:26.393Z,100388.44
2018-04-11T22:11:56.406Z,100379.34
2018-04-11T22:14:25.917Z,100388.74
2018-04-11T22:16:55.497Z,100382.27
2018-04-11T22:19:25.120Z,100380.50
2018-04-11T22:21:54.801Z,100381.89
2018-04-11T22:24:24.640Z,100379.14
2018-04-11T22:26:54.129Z,100381.77
2018-04-11T22:29:23.974Z,100383.98
2018-04-11T22:31:54.116Z,100378.98
2018-04-11T22:34:23.697Z,100375.73
2018-04-11T22:36:53.242Z,100378.91
2018-04-11T22:39:23.431Z,100377.94
2018-04-11T22:41:52.943Z,100372.14
2018-04-11T22:44:22.519Z,100374.73
2018-04-11T22:46:52.307Z,100365.75
2018-04-11T22:49:21.759Z,100366.52
2018-04-11T22:51:51.827Z,100362.84
2018-04-11T22:54:21.344Z,100364.62
2018-04-11T22:56:51.347Z,100371.82
2018-04-11T22:59:20.970Z,100369.03
2018-04-11T23:01:50.684Z,100372.17
2018-04-11T23:04:20.534Z,100366.33
2018-04-11T23:06:50.226Z,100367.17
2018-04-11T23:09:19.778Z,100359.51
2018-04-11T23:11:49.270Z,100353.16
2018-04-11T23:14:19.064Z,100351.39
2018-04-11T23:16:48.660Z,100358.50
2018-04-11T23:19:19.165Z,100350.73
2018-04-11T23:21:49.037Z,100354.37
2018-04-11T23:24:18.901Z,100353.52
2018-04-11T23:26:48.575Z,100356.22
2018-04-11T23:29:18.263Z,100358.08
2018-04-11T23:31:48.005Z,100355.37
2018-04-11T23:34:17.575Z,100352.16
2018-04-11T23:36:47.310Z,100352.97
2018-04-11T23:39:16.911Z,100352.54
2018-04-11T23:41:46.468Z,100354.25
2018-04-11T23:44:15.873Z,100348.40
2018-04-11T23:46:46.310Z,100347.82
2018-04-11T23:49:17.188Z,100351.88
2018-04-11T23:51:47.726Z,100344.69
2018-04-11T23:54:17.877Z,100347.34
2018-04-11T23:56:47.740Z,100349.67
2018-04-11T23:59:17.153Z,100340.20
